createdAt,value
2018-04-09T00:01:18.044Z,10.60
2018-04-09T00:02:17.360Z,10.60
2018-04-09T00:04:10.659Z,11.60
2018-04-09T00:05:10.578Z,11.30
2018-04-09T00:07:03.871Z,11.40
2018-04-09T00:08:03.791Z,11.10
2018-04-09T00:09:57.174Z,11.50
2018-04-09T00:10:57.009Z,11.10
2018-04-09T00:12:50.412Z,10.80
2018-04-09T00:13:50.228Z,11.60
2018-04-09T00:15:43.528Z,10.40
2018-04-09T00:16:43.447Z,10.80
2018-04-09T00:18:36.830Z,11.80
2018-04-09T00:19:36.664Z,10.70
2018-04-09T00:21:29.966Z,11.50
2018-04-09T00:22:29.885Z,11.90
2018-04-09T00:24:23.269Z,11.20
2018-04-09T00:25:23.102Z,11.50
2018-04-09T00:27:16.506Z,11.00
2018-04-09T00:28:16.313Z,11.10
2018-04-09T00:30:09.694Z,11.00
2018-04-09T00:31:09.530Z,10.80
2018-04-09T00:33:02.932Z,11.60
2018-04-09T00:34:02.751Z,11.30
2018-04-09T00:35:56.149Z,11.90
2018-04-09T00:36:55.965Z,11.20
2018-04-09T00:38:49.318Z,10.90
2018-04-09T00:39:49.256Z,11.10
2018-04-09T00:41:42.666Z,11.10
2018-04-09T00:42:42.474Z,11.20
2018-04-09T00:44:35.754Z,10.80
2018-04-09T00:45:35.691Z,11.40
2018-04-09T00:47:28.983Z,11.20
2018-04-09T00:48:28.902Z,11.70
2018-04-09T00:50:22.285Z,11.10
2018-04-09T00:51:22.120Z,11.60
2018-04-09T00:53:15.521Z,11.10
2018-04-09T00:54:15.338Z,11.70
2018-04-09T00:56:08.632Z,11.50
2018-04-09T00:57:08.554Z,12.30
2018-04-09T00:59:01.831Z,12.00
2018-04-09T01:00:01.772Z,11.70
2018-04-09T01:01:55.172Z,11.30
2018-04-09T01:02:54.987Z,11.10
2018-04-09T01:04:48.266Z,11.60
2018-04-09T01:05:48.204Z,10.80
2018-04-09T01:07:41.501Z,11.70
2018-04-09T01:08:41.422Z,12.20
2018-04-09T01:10:34.806Z,12.50
2018-04-09T01:11:34.639Z,11.80
2018-04-09T01:13:28.037Z,11.10
2018-04-09T01:14:27.855Z,11.60
2018-04-09T01:16:21.154Z,12.00
2018-04-09T01:17:21.071Z,11.50
2018-04-09T01:19:14.454Z,11.40
2018-04-09T01:20:14.289Z,11.50
2018-04-09T01:22:07.588Z,11.40
2018-04-09T01:23:07.504Z,10.70
2018-04-09T01:25:00.885Z,11.70
2018-04-09T01:26:00.719Z,11.40
2018-04-09T01:27:54.016Z,11.40
2018-04-09T01:28:53.936Z,10.80
2018-04-09T01:30:47.318Z,12.50
2018-04-09T01:31:47.152Z,11.70
2018-04-09T01:33:40.449Z,11.20
2018-04-09T01:34:40.370Z,11.50
2018-04-09T01:36:34.269Z,11.40
2018-04-09T01:37:33.588Z,11.50
2018-04-09T01:39:26.871Z,11.50
2018-04-09T01:40:26.804Z,11.50
2018-04-09T01:42:20.101Z,11.40
2018-04-09T01:43:20.018Z,12.10
2018-04-09T01:45:13.410Z,11.50
2018-04-09T01:46:13.257Z,11.20
2018-04-09T01:48:06.551Z,11.60
2018-04-09T01:49:06.469Z,12.90
2018-04-09T01:50:59.851Z,12.50
2018-04-09T01:51:59.685Z,12.70
2018-04-09T01:53:53.085Z,11.50
2018-04-09T01:54:52.911Z,12.10
2018-04-09T01:56:46.195Z,12.60
2018-04-09T01:57:46.115Z,11.80
2018-04-09T01:59:39.392Z,12.60
2018-04-09T02:00:39.330Z,12.20
2018-04-09T02:02:32.625Z,12.30
2018-04-09T02:03:32.547Z,12.80
2018-04-09T02:05:25.927Z,12.20
2018-04-09T02:06:25.760Z,12.10
2018-04-09T02:08:19.660Z,11.70
2018-04-09T02:09:18.974Z,12.20
2018-04-09T02:11:12.252Z,12.40
2018-04-09T02:12:12.188Z,11.60
2018-04-09T02:14:05.588Z,12.60
2018-04-09T02:15:05.402Z,13.10
2018-04-09T02:16:58.784Z,12.60
2018-04-09T02:17:58.615Z,13.20
2018-04-09T02:19:52.008Z,12.20
2018-04-09T02:20:51.822Z,11.90
2018-04-09T02:22:45.117Z,12.60
2018-04-09T02:23:45.037Z,13.30
2018-04-09T02:25:38.416Z,12.50
2018-04-09T02:26:38.250Z,12.80
2018-04-09T02:28:31.651Z,11.70
2018-04-09T02:29:31.466Z,12.30
2018-04-09T02:31:24.847Z,12.80
2018-04-09T02:32:24.680Z,13.70
2018-04-09T02:34:17.972Z,12.10
2018-04-09T02:35:17.893Z,12.80
2018-04-09T02:37:11.174Z,12.50
2018-04-09T02:38:11.109Z,13.10
2018-04-09T02:40:04.401Z,13.40
2018-04-09T02:41:04.321Z,13.50
2018-04-09T02:42:57.719Z,13.00
2018-04-09T02:43:57.539Z,13.00
2018-04-09T02:45:50.917Z,13.10
2018-04-09T02:46:50.749Z,12.80
2018-04-09T02:48:44.044Z,13.30
2018-04-09T02:49:43.963Z,12.70
2018-04-09T02:51:37.318Z,12.70
2018-04-09T02:52:37.257Z,12.60
2018-04-09T02:54:30.656Z,13.30
2018-04-09T02:55:30.468Z,13.70
2018-04-09T02:57:23.876Z,12.40
2018-04-09T02:58:23.675Z,12.50
2018-04-09T03:00:17.075Z,13.00
2018-04-09T03:01:16.889Z,12.80
2018-04-09T03:03:10.286Z,12.70
2018-04-09T03:04:10.103Z,13.20
2018-04-09T03:06:03.376Z,13.10
2018-04-09T03:07:03.313Z,13.60
2018-04-09T03:08:56.714Z,12.30
2018-04-09T03:09:56.529Z,13.20
2018-04-09T03:11:50.407Z,13.20
2018-04-09T03:12:49.737Z,13.30
2018-04-09T03:14:43.035Z,13.30
2018-04-09T03:15:42.952Z,14.90
2018-04-09T03:17:36.244Z,13.10
2018-04-09T03:18:36.154Z,13.70
2018-04-09T03:20:29.599Z,14.00
2018-04-09T03:21:29.380Z,14.30
2018-04-09T03:23:23.784Z,14.40
2018-04-09T03:24:23.439Z,13.60
2018-04-09T03:26:16.819Z,13.50
2018-04-09T03:27:16.651Z,14.50
2018-04-09T03:29:10.051Z,13.30
2018-04-09T03:30:09.866Z,13.10
2018-04-09T03:32:03.243Z,13.80
2018-04-09T03:33:03.074Z,14.60
2018-04-09T03:34:56.366Z,14.20
2018-04-09T03:35:56.288Z,13.70
2018-04-09T03:37:49.583Z,13.60
2018-04-09T03:38:49.498Z,14.10
2018-04-09T03:40:42.774Z,14.50
2018-04-09T03:41:42.710Z,13.40
2018-04-09T03:43:36.609Z,14.60
2018-04-09T03:44:35.922Z,14.60
2018-04-09T03:46:29.303Z,14.00
2018-04-09T03:47:29.126Z,14.70
2018-04-09T03:49:22.523Z,14.20
2018-04-09T03:50:22.326Z,14.40
2018-04-09T03:52:15.601Z,14.60
2018-04-09T03:53:15.537Z,14.60
2018-04-09T03:55:08.829Z,14.10
2018-04-09T03:56:08.748Z,14.00
2018-04-09T03:58:02.152Z,14.80
2018-04-09T03:59:01.959Z,14.90
2018-04-09T04:00:55.318Z,15.40
2018-04-09T04:01:55.254Z,15.50
2018-04-09T04:03:48.550Z,14.40
2018-04-09T04:04:48.468Z,14.90
2018-04-09T04:06:41.733Z,14.30
2018-04-09T04:07:41.669Z,14.60
2018-04-09T04:09:35.069Z,14.40
2018-04-09T04:10:34.870Z,16.30
2018-04-09T04:12:28.251Z,14.30
2018-04-09T04:13:28.071Z,15.30
2018-04-09T04:15:21.470Z,15.50
2018-04-09T04:16:21.273Z,14.90
2018-04-09T04:18:14.671Z,14.90
2018-04-09T04:19:14.483Z,14.90
2018-04-09T04:21:07.863Z,15.00
2018-04-09T04:22:07.697Z,15.20
2018-04-09T04:24:01.090Z,15.20
2018-04-09T04:25:00.904Z,14.90
2018-04-09T04:26:54.281Z,15.80
2018-04-09T04:27:54.104Z,15.30
2018-04-09T04:29:47.502Z,15.60
2018-04-09T04:30:47.315Z,15.30
2018-04-09T04:32:40.588Z,14.00
2018-04-09T04:33:40.525Z,14.50
2018-04-09T04:35:33.927Z,14.70
2018-04-09T04:36:33.734Z,16.40
2018-04-09T04:38:27.008Z,14.60
2018-04-09T04:39:26.948Z,14.40
2018-04-09T04:41:20.341Z,15.70
2018-04-09T04:42:20.158Z,16.20
2018-04-09T04:44:13.552Z,14.40
2018-04-09T04:45:13.363Z,14.80
2018-04-09T04:47:06.630Z,15.00
2018-04-09T04:48:06.564Z,15.50
2018-04-09T04:49:59.857Z,15.50
2018-04-09T04:50:59.781Z,15.10
2018-04-09T04:52:53.156Z,14.70
2018-04-09T04:53:52.984Z,16.10
2018-04-09T04:55:46.275Z,16.40
2018-04-09T04:56:46.186Z,16.60
2018-04-09T04:58:39.583Z,16.00
2018-04-09T04:59:39.389Z,16.00
2018-04-09T05:01:32.765Z,16.20
2018-04-09T05:02:32.595Z,16.20
2018-04-09T05:04:25.887Z,16.30
2018-04-09T05:05:25.804Z,16.50
2018-04-09T05:07:19.182Z,15.40
2018-04-09T05:08:19.003Z,16.70
2018-04-09T05:10:12.288Z,16.30
2018-04-09T05:11:12.210Z,16.30
2018-04-09T05:13:05.476Z,16.60
2018-04-09T05:14:05.412Z,17.70
2018-04-09T05:15:58.704Z,16.60
2018-04-09T05:16:58.622Z,17.50
2018-04-09T05:18:51.916Z,16.50
2018-04-09T05:19:51.831Z,16.80
2018-04-09T05:21:45.209Z,18.50
2018-04-09T05:22:45.031Z,17.80
2018-04-09T05:24:38.321Z,18.20
2018-04-09T05:25:38.240Z,17.20
2018-04-09T05:27:31.501Z,17.70
2018-04-09T05:28:31.444Z,17.30
2018-04-09T05:30:24.732Z,17.80
2018-04-09T05:31:24.648Z,17.20
2018-04-09T05:33:18.028Z,17.40
2018-04-09T05:34:17.858Z,18.30
2018-04-09T05:36:11.259Z,19.20
2018-04-09T05:37:11.069Z,17.60
2018-04-09T05:39:04.362Z,16.80
2018-04-09T05:40:04.277Z,18.20
2018-04-09T05:41:57.552Z,17.10
2018-04-09T05:42:57.489Z,18.10
2018-04-09T05:44:50.889Z,17.90
2018-04-09T05:45:50.701Z,18.40
2018-04-09T05:47:44.081Z,17.80
2018-04-09T05:48:43.918Z,18.90
2018-04-09T05:50:37.310Z,17.80
2018-04-09T05:51:37.123Z,19.10
2018-04-09T05:53:30.396Z,19.30
2018-04-09T05:54:30.334Z,19.40
2018-04-09T05:56:23.731Z,18.70
2018-04-09T05:57:23.544Z,20.20
2018-04-09T05:59:16.837Z,19.40
2018-04-09T06:00:16.755Z,20.30
2018-04-09T06:02:10.137Z,19.30
2018-04-09T06:03:09.967Z,19.10
2018-04-09T06:05:03.339Z,23.70
2018-04-09T06:06:03.254Z,21.70
2018-04-09T06:07:56.530Z,23.50
2018-04-09T06:08:56.464Z,24.30
2018-04-09T06:10:49.864Z,24.60
2018-04-09T06:11:49.675Z,22.60
2018-04-09T06:13:42.948Z,25.10
2018-04-09T06:14:42.886Z,25.40
2018-04-09T06:16:36.176Z,25.50
2018-04-09T06:17:36.093Z,26.20
2018-04-09T06:19:29.472Z,25.70
2018-04-09T06:20:29.323Z,26.80
2018-04-09T06:22:22.720Z,25.60
2018-04-09T06:23:22.530Z,26.10
2018-04-09T06:25:15.822Z,26.90
2018-04-09T06:26:15.740Z,27.00
2018-04-09T06:28:09.119Z,27.60
2018-04-09T06:29:08.948Z,27.10
2018-04-09T06:31:02.348Z,27.80
2018-04-09T06:32:02.150Z,26.80
2018-04-09T06:33:55.528Z,43.70
2018-04-09T06:34:55.368Z,33.10
2018-04-09T06:36:48.644Z,27.20
2018-04-09T06:37:48.565Z,27.00
2018-04-09T06:39:41.944Z,27.90
2018-04-09T06:40:41.776Z,27.70
2018-04-09T06:42:35.090Z,28.80
2018-04-09T06:43:35.011Z,27.70
2018-04-09T06:45:28.413Z,28.70
2018-04-09T06:46:28.211Z,28.50
2018-04-09T06:48:21.478Z,28.80
2018-04-09T06:49:21.416Z,27.80
2018-04-09T06:51:14.814Z,26.60
2018-04-09T06:52:14.621Z,26.50
2018-04-09T06:54:08.003Z,27.60
2018-04-09T06:55:07.823Z,27.10
2018-04-09T06:57:01.224Z,26.70
2018-04-09T06:58:01.091Z,27.90
2018-04-09T06:59:54.471Z,26.90
2018-04-09T07:00:54.294Z,27.30
2018-04-09T07:02:47.581Z,25.90
2018-04-09T07:03:47.549Z,26.00
2018-04-09T07:05:40.784Z,26.00
2018-04-09T07:06:40.705Z,25.90
2018-04-09T07:08:33.980Z,25.80
2018-04-09T07:09:33.911Z,24.90
2018-04-09T07:11:27.309Z,24.90
2018-04-09T07:12:27.114Z,24.80
2018-04-09T07:14:21.503Z,25.50
2018-04-09T07:15:21.320Z,24.90
2018-04-09T07:17:14.603Z,25.10
2018-04-09T07:18:14.523Z,25.80
2018-04-09T07:20:07.905Z,26.00
2018-04-09T07:21:07.729Z,24.90
2018-04-09T07:23:01.015Z,24.90
2018-04-09T07:24:00.936Z,26.40
2018-04-09T07:25:54.335Z,23.40
2018-04-09T07:26:54.150Z,25.50
2018-04-09T07:28:47.422Z,22.70
2018-04-09T07:29:47.360Z,23.20
2018-04-09T07:31:40.645Z,24.70
2018-04-09T07:32:40.565Z,24.10
2018-04-09T07:34:33.836Z,25.30
2018-04-09T07:35:33.772Z,26.60
2018-04-09T07:37:27.173Z,26.70
2018-04-09T07:38:26.994Z,25.90
2018-04-09T07:40:20.362Z,28.20
2018-04-09T07:41:20.189Z,26.90
2018-04-09T07:43:13.586Z,27.60
2018-04-09T07:44:13.394Z,26.20
2018-04-09T07:46:06.797Z,26.80
2018-04-09T07:47:06.603Z,26.90
2018-04-09T07:48:59.869Z,28.20
2018-04-09T07:49:59.810Z,28.60
2018-04-09T07:51:53.098Z,27.90
2018-04-09T07:52:53.022Z,29.20
2018-04-09T07:54:46.402Z,29.30
2018-04-09T07:55:46.230Z,29.50
2018-04-09T07:57:39.516Z,29.50
2018-04-09T07:58:39.437Z,28.80
2018-04-09T08:00:32.821Z,29.40
2018-04-09T08:01:32.646Z,29.70
2018-04-09T08:03:26.048Z,30.40
2018-04-09T08:04:25.857Z,29.30
2018-04-09T08:06:19.271Z,29.30
2018-04-09T08:07:19.066Z,30.20
2018-04-09T08:09:12.337Z,30.00
2018-04-09T08:10:12.280Z,29.70
2018-04-09T08:12:05.680Z,30.90
2018-04-09T08:13:05.508Z,30.50
2018-04-09T08:14:58.764Z,30.80
2018-04-09T08:15:58.708Z,30.20
2018-04-09T08:17:52.108Z,31.00
2018-04-09T08:18:51.915Z,31.80
2018-04-09T08:20:45.299Z,29.10
2018-04-09T08:21:45.126Z,29.70
2018-04-09T08:23:38.527Z,30.20
2018-04-09T08:24:38.336Z,30.20
2018-04-09T08:26:31.740Z,31.30
2018-04-09T08:27:31.553Z,31.40
2018-04-09T08:29:24.943Z,31.00
2018-04-09T08:30:24.770Z,30.70
2018-04-09T08:32:18.061Z,32.90
2018-04-09T08:33:17.982Z,31.90
2018-04-09T08:35:11.371Z,32.30
2018-04-09T08:36:11.289Z,32.10
2018-04-09T08:38:04.664Z,31.20
2018-04-09T08:39:04.474Z,32.40
2018-04-09T08:40:57.747Z,33.20
2018-04-09T08:41:57.689Z,32.50
2018-04-09T08:43:50.980Z,31.70
2018-04-09T08:44:50.904Z,32.20
2018-04-09T08:46:44.198Z,32.50
2018-04-09T08:47:44.121Z,32.30
2018-04-09T08:49:37.394Z,32.30
2018-04-09T08:50:37.339Z,33.50
2018-04-09T08:52:30.654Z,34.90
2018-04-09T08:53:30.567Z,33.60
2018-04-09T08:55:23.952Z,35.30
2018-04-09T08:56:23.773Z,35.10
2018-04-09T08:58:17.078Z,35.10
2018-04-09T08:59:16.996Z,34.90
2018-04-09T09:01:10.386Z,36.50
2018-04-09T09:02:10.218Z,36.40
2018-04-09T09:04:03.628Z,38.30
2018-04-09T09:05:03.436Z,37.80
2018-04-09T09:06:56.841Z,38.60
2018-04-09T09:07:56.653Z,39.20
2018-04-09T09:09:49.927Z,37.30
2018-04-09T09:10:49.868Z,37.50
2018-04-09T09:12:43.273Z,37.40
2018-04-09T09:13:43.086Z,37.30
2018-04-09T09:15:36.471Z,38.20
2018-04-09T09:16:36.302Z,38.60
2018-04-09T09:18:29.594Z,37.30
2018-04-09T09:19:29.518Z,38.40
2018-04-09T09:21:23.914Z,36.90
2018-04-09T09:22:23.581Z,36.80
2018-04-09T09:24:16.988Z,37.80
2018-04-09T09:25:16.809Z,36.70
2018-04-09T09:27:10.104Z,38.20
2018-04-09T09:28:10.028Z,37.30
2018-04-09T09:30:03.323Z,37.50
2018-04-09T09:31:03.282Z,38.10
2018-04-09T09:32:56.668Z,38.10
2018-04-09T09:33:56.489Z,38.00
2018-04-09T09:35:49.879Z,39.10
2018-04-09T09:36:49.706Z,38.40
2018-04-09T09:38:43.112Z,39.70
2018-04-09T09:39:42.922Z,38.50
2018-04-09T09:41:36.197Z,38.30
2018-04-09T09:42:36.139Z,37.80
2018-04-09T09:44:29.430Z,39.20
2018-04-09T09:45:29.356Z,40.30
2018-04-09T09:47:22.647Z,39.00
2018-04-09T09:48:22.573Z,37.80
2018-04-09T09:50:15.846Z,39.00
2018-04-09T09:51:15.789Z,38.70
2018-04-09T09:53:09.194Z,38.90
2018-04-09T09:54:09.005Z,37.60
2018-04-09T09:56:02.393Z,39.90
2018-04-09T09:57:02.224Z,40.80
2018-04-09T09:58:55.521Z,41.20
2018-04-09T09:59:55.442Z,40.30
2018-04-09T10:01:48.830Z,39.10
2018-04-09T10:02:48.672Z,38.90
2018-04-09T10:04:42.967Z,40.40
2018-04-09T10:05:42.892Z,38.40
2018-04-09T10:07:36.339Z,37.90
2018-04-09T10:08:36.111Z,37.70
2018-04-09T10:10:29.500Z,38.20
2018-04-09T10:11:29.333Z,37.80
2018-04-09T10:13:22.629Z,37.50
2018-04-09T10:14:22.555Z,37.80
2018-04-09T10:16:15.948Z,38.00
2018-04-09T10:17:15.775Z,37.80
2018-04-09T10:19:09.188Z,37.90
2018-04-09T10:20:08.996Z,38.50
2018-04-09T10:22:02.386Z,39.90
2018-04-09T10:23:02.221Z,39.10
2018-04-09T10:24:55.544Z,39.40
2018-04-09T10:25:55.453Z,38.40
2018-04-09T10:27:48.743Z,38.30
2018-04-09T10:28:48.669Z,38.40
2018-04-09T10:30:41.947Z,39.40
2018-04-09T10:31:41.891Z,38.70
2018-04-09T10:33:35.190Z,38.70
2018-04-09T10:34:35.114Z,38.80
2018-04-09T10:36:28.394Z,37.20
2018-04-09T10:37:28.340Z,38.40
2018-04-09T10:39:21.636Z,37.50
2018-04-09T10:40:21.562Z,37.50
2018-04-09T10:42:14.839Z,37.90
2018-04-09T10:43:14.784Z,39.10
2018-04-09T10:45:08.191Z,36.60
2018-04-09T10:46:08.010Z,37.20
2018-04-09T10:48:01.414Z,36.70
2018-04-09T10:49:01.269Z,36.60
2018-04-09T10:50:54.550Z,37.10
2018-04-09T10:51:54.490Z,37.80
2018-04-09T10:53:47.896Z,36.60
2018-04-09T10:54:47.712Z,38.10
2018-04-09T10:56:41.104Z,36.90
2018-04-09T10:57:40.938Z,37.10
2018-04-09T10:59:35.239Z,35.50
2018-04-09T11:00:35.162Z,36.00
2018-04-09T11:02:28.551Z,37.10
2018-04-09T11:03:28.389Z,38.00
2018-04-09T11:05:21.791Z,36.90
2018-04-09T11:06:21.609Z,37.30
2018-04-09T11:08:14.902Z,36.50
2018-04-09T11:09:14.829Z,35.80
2018-04-09T11:11:08.222Z,37.60
2018-04-09T11:12:08.051Z,37.20
2018-04-09T11:14:01.352Z,37.70
2018-04-09T11:15:01.272Z,37.00
2018-04-09T11:16:54.660Z,37.50
2018-04-09T11:17:54.495Z,38.00
2018-04-09T11:19:47.790Z,37.50
2018-04-09T11:20:47.715Z,37.00
2018-04-09T11:22:41.105Z,38.80
2018-04-09T11:23:40.935Z,38.20
2018-04-09T11:25:34.342Z,37.70
2018-04-09T11:26:34.157Z,38.70
2018-04-09T11:28:27.452Z,37.30
2018-04-09T11:29:27.377Z,37.20
2018-04-09T11:31:20.771Z,38.40
2018-04-09T11:32:20.597Z,38.80
2018-04-09T11:34:13.997Z,36.20
2018-04-09T11:35:13.817Z,35.70
2018-04-09T11:37:07.138Z,37.60
2018-04-09T11:38:07.044Z,36.70
2018-04-09T11:40:00.448Z,37.50
2018-04-09T11:41:00.264Z,37.00
2018-04-09T11:42:53.650Z,37.90
2018-04-09T11:43:53.483Z,37.90
2018-04-09T11:45:46.773Z,37.00
2018-04-09T11:46:46.702Z,36.40
2018-04-09T11:48:39.997Z,38.70
2018-04-09T11:49:39.921Z,37.40
2018-04-09T11:51:33.334Z,38.00
2018-04-09T11:52:33.139Z,37.40
2018-04-09T11:54:26.545Z,37.40
2018-04-09T11:55:26.360Z,38.10
2018-04-09T11:57:19.747Z,36.90
2018-04-09T11:58:19.585Z,37.40
2018-04-09T12:00:12.993Z,40.00
2018-04-09T12:01:12.803Z,40.00
2018-04-09T12:03:06.692Z,38.10
2018-04-09T12:04:06.024Z,37.50
2018-04-09T12:05:59.345Z,38.30
2018-04-09T12:06:59.273Z,37.90
2018-04-09T12:08:52.561Z,37.80
2018-04-09T12:09:52.487Z,38.80
2018-04-09T12:11:45.878Z,38.60
2018-04-09T12:12:45.712Z,39.10
2018-04-09T12:14:39.117Z,39.10
2018-04-09T12:15:38.940Z,38.80
2018-04-09T12:17:32.213Z,39.80
2018-04-09T12:18:32.159Z,38.20
2018-04-09T12:20:25.563Z,39.70
2018-04-09T12:21:25.377Z,39.10
2018-04-09T12:23:18.766Z,39.00
2018-04-09T12:24:18.601Z,39.10
2018-04-09T12:26:11.895Z,40.60
2018-04-09T12:27:11.818Z,39.30
2018-04-09T12:29:05.229Z,38.60
2018-04-09T12:30:05.039Z,38.90
2018-04-09T12:31:58.426Z,39.40
2018-04-09T12:32:58.256Z,39.80
2018-04-09T12:34:52.270Z,39.50
2018-04-09T12:35:51.477Z,40.20
2018-04-09T12:37:44.753Z,39.00
2018-04-09T12:38:44.696Z,38.70
2018-04-09T12:40:38.104Z,39.10
2018-04-09T12:41:37.917Z,38.60
2018-04-09T12:43:31.306Z,39.00
2018-04-09T12:44:31.138Z,39.60
2018-04-09T12:46:24.545Z,37.90
2018-04-09T12:47:24.359Z,39.30
2018-04-09T12:49:17.774Z,39.40
2018-04-09T12:50:17.581Z,39.20
2018-04-09T12:52:10.858Z,40.60
2018-04-09T12:53:10.800Z,38.20
2018-04-09T12:55:04.208Z,39.20
2018-04-09T12:56:04.022Z,39.60
2018-04-09T12:57:57.404Z,38.90
2018-04-09T12:58:57.266Z,37.70
2018-04-09T13:00:50.575Z,39.60
2018-04-09T13:01:50.486Z,39.40
2018-04-09T13:03:43.876Z,39.20
2018-04-09T13:04:43.721Z,38.40
2018-04-09T13:06:37.130Z,39.30
2018-04-09T13:07:36.939Z,40.00
2018-04-09T13:09:30.346Z,38.30
2018-04-09T13:10:30.163Z,39.30
2018-04-09T13:12:24.550Z,38.00
2018-04-09T13:13:24.384Z,38.10
2018-04-09T13:15:17.678Z,38.30
2018-04-09T13:16:17.604Z,37.50
2018-04-09T13:18:10.992Z,37.70
2018-04-09T13:19:10.826Z,35.70
2018-04-09T13:21:04.230Z,38.00
2018-04-09T13:22:04.046Z,37.30
2018-04-09T13:23:57.323Z,37.60
2018-04-09T13:24:57.266Z,36.60
2018-04-09T13:26:50.563Z,38.70
2018-04-09T13:27:50.487Z,39.30
2018-04-09T13:29:43.804Z,38.60
2018-04-09T13:30:43.727Z,37.90
2018-04-09T13:32:37.006Z,38.70
2018-04-09T13:33:36.947Z,37.50
2018-04-09T13:35:30.355Z,34.80
2018-04-09T13:36:30.173Z,36.80
2018-04-09T13:38:23.562Z,36.90
2018-04-09T13:39:23.393Z,36.90
2018-04-09T13:41:16.800Z,35.40
2018-04-09T13:42:16.614Z,37.40
2018-04-09T13:44:10.001Z,34.80
2018-04-09T13:45:09.834Z,35.10
2018-04-09T13:47:03.129Z,36.40
2018-04-09T13:48:03.056Z,35.00
2018-04-09T13:49:56.351Z,34.50
2018-04-09T13:50:56.276Z,35.40
2018-04-09T13:52:49.553Z,34.90
2018-04-09T13:53:49.500Z,36.00
2018-04-09T13:55:42.903Z,33.30
2018-04-09T13:56:42.745Z,33.60
2018-04-09T13:58:36.023Z,34.40
2018-04-09T13:59:35.968Z,34.40
2018-04-09T14:01:29.373Z,33.80
2018-04-09T14:02:29.269Z,33.20
2018-04-09T14:04:22.542Z,34.00
2018-04-09T14:05:22.489Z,33.60
2018-04-09T14:07:16.392Z,33.20
2018-04-09T14:08:15.708Z,34.10
2018-04-09T14:10:09.007Z,34.30
2018-04-09T14:11:08.930Z,34.50
2018-04-09T14:13:02.220Z,34.50
2018-04-09T14:14:02.150Z,33.20
2018-04-09T14:15:55.558Z,34.70
2018-04-09T14:16:55.375Z,34.50
2018-04-09T14:18:48.652Z,32.60
2018-04-09T14:19:48.593Z,33.30
2018-04-09T14:21:42.004Z,32.60
2018-04-09T14:22:41.816Z,32.60
2018-04-09T14:24:35.206Z,31.90
2018-04-09T14:25:35.041Z,32.90
2018-04-09T14:27:28.441Z,32.10
2018-04-09T14:28:28.262Z,32.00
2018-04-09T14:30:22.669Z,32.90
2018-04-09T14:31:22.482Z,33.30
2018-04-09T14:33:15.872Z,31.90
2018-04-09T14:34:15.704Z,31.20
2018-04-09T14:36:09.110Z,31.80
2018-04-09T14:37:08.925Z,31.50
2018-04-09T14:39:02.315Z,31.70
2018-04-09T14:40:02.145Z,32.40
2018-04-09T14:41:55.440Z,31.50
2018-04-09T14:42:55.365Z,33.40
2018-04-09T14:44:48.645Z,31.60
2018-04-09T14:45:48.589Z,31.10
2018-04-09T14:47:41.993Z,31.20
2018-04-09T14:48:41.812Z,31.30
2018-04-09T14:50:35.105Z,31.80
2018-04-09T14:51:35.027Z,33.00
2018-04-09T14:53:29.419Z,31.90
2018-04-09T14:54:29.266Z,32.10
2018-04-09T14:56:22.565Z,31.50
2018-04-09T14:57:22.491Z,31.80
2018-04-09T14:59:15.880Z,32.50
2018-04-09T15:00:15.711Z,33.00
2018-04-09T15:02:09.009Z,33.10
2018-04-09T15:03:08.931Z,33.40
2018-04-09T15:05:02.319Z,31.20
2018-04-09T15:06:02.153Z,32.60
2018-04-09T15:07:55.448Z,34.00
2018-04-09T15:08:55.373Z,33.30
2018-04-09T15:10:48.666Z,33.50
2018-04-09T15:11:48.591Z,32.70
2018-04-09T15:13:41.979Z,32.60
2018-04-09T15:14:41.881Z,32.80
2018-04-09T15:16:35.287Z,32.20
2018-04-09T15:17:35.099Z,32.20
2018-04-09T15:19:28.375Z,33.60
2018-04-09T15:20:28.320Z,33.90
2018-04-09T15:22:21.622Z,32.60
2018-04-09T15:23:21.545Z,32.80
2018-04-09T15:25:14.822Z,31.70
2018-04-09T15:26:14.766Z,33.90
2018-04-09T15:28:08.171Z,33.30
2018-04-09T15:29:07.981Z,33.60
2018-04-09T15:31:01.367Z,35.00
2018-04-09T15:32:01.269Z,34.20
2018-04-09T15:33:54.543Z,34.80
2018-04-09T15:34:54.486Z,35.10
2018-04-09T15:36:47.781Z,34.60
2018-04-09T15:37:47.705Z,36.40
2018-04-09T15:39:40.990Z,34.30
2018-04-09T15:40:40.934Z,34.60
2018-04-09T15:42:34.838Z,33.40
2018-04-09T15:43:34.162Z,34.10
2018-04-09T15:45:26.962Z,34.70
2018-04-09T15:46:26.904Z,35.10
2018-04-09T15:48:20.209Z,33.80
2018-04-09T15:49:20.132Z,35.20
2018-04-09T15:51:13.436Z,32.90
2018-04-09T15:52:13.361Z,34.30
2018-04-09T15:54:06.748Z,35.60
2018-04-09T15:55:06.618Z,35.20
2018-04-09T15:57:00.024Z,35.70
2018-04-09T15:57:59.837Z,36.40
2018-04-09T15:59:53.971Z,35.30
2018-04-09T16:00:53.913Z,35.80
2018-04-09T16:02:47.207Z,35.30
2018-04-09T16:03:47.162Z,35.00
2018-04-09T16:05:40.415Z,35.80
2018-04-09T16:06:40.358Z,36.20
2018-04-09T16:08:33.653Z,34.70
2018-04-09T16:09:33.575Z,34.20
2018-04-09T16:11:26.984Z,35.60
2018-04-09T16:12:26.799Z,35.50
2018-04-09T16:14:20.073Z,37.40
2018-04-09T16:15:20.015Z,36.60
2018-04-09T16:17:13.419Z,35.70
2018-04-09T16:18:13.285Z,36.70
2018-04-09T16:20:06.544Z,37.20
2018-04-09T16:21:06.486Z,35.40
2018-04-09T16:22:59.792Z,36.70
2018-04-09T16:23:59.717Z,35.10
2018-04-09T16:25:52.993Z,35.20
2018-04-09T16:26:52.936Z,34.60
2018-04-09T16:28:46.344Z,35.80
2018-04-09T16:29:46.154Z,35.10
2018-04-09T16:31:40.450Z,34.60
2018-04-09T16:32:40.377Z,35.50
2018-04-09T16:34:34.653Z,34.40
2018-04-09T16:35:34.596Z,35.40
2018-04-09T16:37:27.890Z,35.10
2018-04-09T16:38:27.815Z,35.40
2018-04-09T16:40:21.200Z,35.20
2018-04-09T16:41:21.032Z,35.20
2018-04-09T16:43:14.338Z,35.90
2018-04-09T16:44:14.265Z,33.70
2018-04-09T16:46:07.650Z,33.80
2018-04-09T16:47:07.485Z,35.50
2018-04-09T16:49:00.887Z,32.80
2018-04-09T16:50:00.702Z,34.10
2018-04-09T16:51:54.116Z,35.20
2018-04-09T16:52:53.918Z,34.50
2018-04-09T16:54:47.193Z,33.90
2018-04-09T16:55:47.136Z,34.20
2018-04-09T16:57:40.432Z,35.20
2018-04-09T16:58:40.356Z,34.20
2018-04-09T17:00:33.630Z,33.00
2018-04-09T17:01:33.572Z,34.10
2018-04-09T17:03:26.977Z,33.30
2018-04-09T17:04:26.810Z,33.40
2018-04-09T17:06:20.196Z,31.90
2018-04-09T17:07:20.024Z,32.90
2018-04-09T17:09:13.446Z,34.10
2018-04-09T17:10:13.267Z,34.20
2018-04-09T17:12:06.672Z,34.00
2018-04-09T17:13:06.492Z,32.80
2018-04-09T17:14:59.778Z,33.50
2018-04-09T17:15:59.729Z,32.70
2018-04-09T17:17:53.025Z,32.50
2018-04-09T17:18:52.948Z,31.60
2018-04-09T17:20:46.236Z,32.40
2018-04-09T17:21:46.178Z,32.50
2018-04-09T17:23:39.480Z,33.00
2018-04-09T17:24:39.402Z,33.20
2018-04-09T17:26:32.687Z,32.90
2018-04-09T17:27:32.628Z,33.30
2018-04-09T17:29:25.932Z,31.50
2018-04-09T17:30:25.854Z,32.30
2018-04-09T17:32:19.147Z,32.80
2018-04-09T17:33:19.072Z,33.60
2018-04-09T17:35:12.460Z,32.60
2018-04-09T17:36:12.284Z,32.40
2018-04-09T17:38:05.585Z,31.70
2018-04-09T17:39:05.502Z,32.60
2018-04-09T17:40:58.787Z,32.80
2018-04-09T17:41:58.728Z,31.90
2018-04-09T17:43:52.041Z,31.40
2018-04-09T17:44:51.964Z,32.10
2018-04-09T17:46:45.279Z,33.00
2018-04-09T17:47:45.180Z,33.30
2018-04-09T17:49:38.586Z,32.20
2018-04-09T17:50:38.396Z,31.40
2018-04-09T17:52:31.803Z,32.60
2018-04-09T17:53:31.613Z,34.00
2018-04-09T17:55:25.002Z,31.40
2018-04-09T17:56:24.838Z,31.50
2018-04-09T17:58:18.143Z,31.70
2018-04-09T17:59:18.064Z,32.10
2018-04-09T18:01:11.451Z,32.40
2018-04-09T18:02:11.284Z,31.50
2018-04-09T18:04:04.595Z,31.50
2018-04-09T18:05:04.517Z,32.00
2018-04-09T18:06:57.791Z,31.80
2018-04-09T18:07:57.732Z,30.50
2018-04-09T18:09:51.067Z,30.60
2018-04-09T18:10:50.950Z,30.80
2018-04-09T18:12:44.277Z,30.70
2018-04-09T18:13:44.174Z,32.20
2018-04-09T18:15:37.568Z,32.10
2018-04-09T18:16:37.398Z,32.40
2018-04-09T18:18:30.802Z,32.20
2018-04-09T18:19:30.613Z,31.70
2018-04-09T18:21:23.999Z,31.00
2018-04-09T18:22:23.837Z,30.20
2018-04-09T18:24:17.244Z,32.00
2018-04-09T18:25:17.057Z,32.10
2018-04-09T18:27:10.357Z,31.00
2018-04-09T18:28:10.279Z,30.40
2018-04-09T18:30:03.670Z,32.30
2018-04-09T18:31:03.504Z,32.20
2018-04-09T18:32:56.810Z,32.10
2018-04-09T18:33:56.731Z,32.20
2018-04-09T18:35:50.052Z,30.20